Time;durP1;ratioP1;P1;durP2;ratioP2;P2;SDS_P1;SDS_P2;PMS_P1;PMS_P2;Temp;Humidity;BMP_temperature;BMP_pressure;BME280_temperature;BME280_humidity;BME280_pressure;Samples;Min_cycle;Max_cycle;Signal;HPM_P1;HPM_P2
2022/08/15 00:01:47;;;;;;;9.18;6.47;;;;;;;19.01;83.77;98562.94;6250564;22;20011;-90
2022/08/15 00:04:13;;;;;;;8.75;6.47;;;;;;;18.98;84.03;98556.22;6225520;22;20435;-90
2022/08/15 00:06:41;;;;;;;8.52;6.75;;;;;;;18.99;83.75;98562.50;6249657;22;20081;-89
2022/08/15 00:09:22;;;;;;;11.38;6.55;;;;;;;18.99;83.80;98554.31;6200534;22;19999;-91
2022/08/15 00:11:49;;;;;;;9.43;6.43;;;;;;;19.01;83.12;98557.50;6204056;22;19992;-91
2022/08/15 00:14:18;;;;;;;8.57;6.65;;;;;;;18.97;83.75;98559.31;6201257;22;19996;-90
2022/08/15 00:16:44;;;;;;;9.70;6.60;;;;;;;19.03;84.00;98563.41;6225513;22;20315;-90
2022/08/15 00:19:29;;;;;;;8.85;6.30;;;;;;;19.03;83.85;98559.84;6200472;22;20153;-90
2022/08/15 00:21:56;;;;;;;9.30;6.57;;;;;;;18.98;83.29;98556.22;6205568;22;20008;-90
2022/08/15 00:24:25;;;;;;;8.20;6.22;;;;;;;19.07;83.25;98563.47;6226321;22;19995;-91
2022/08/15 00:26:52;;;;;;;11.10;6.28;;;;;;;19.00;82.94;98555.88;6201142;22;20015;-90
2022/08/15 00:29:18;;;;;;;7.97;6.25;;;;;;;18.94;83.05;98549.06;6225284;22;20350;-91
2022/08/15 00:31:44;;;;;;;7.63;6.32;;;;;;;18.99;83.14;98559.75;6200591;22;20066;-90
2022/08/15 00:34:12;;;;;;;7.88;6.20;;;;;;;18.92;82.92;98549.41;6226047;22;20349;-90
2022/08/15 00:36:38;;;;;;;7.75;5.97;;;;;;;18.89;82.77;98538.41;6225608;22;20003;-90
2022/08/15 00:39:07;;;;;;;10.35;6.38;;;;;;;18.96;83.14;98557.72;6225807;22;20020;-90
2022/08/15 00:41:39;;;;;;;9.80;6.47;;;;;;;18.97;83.13;98554.66;6200166;22;20149;-90
2022/08/15 00:44:32;;;;;;;13.25;6.72;;;;;;;18.99;82.84;98557.03;6252262;22;20389;-90
2022/08/15 00:47:02;;;;;;;8.98;6.25;;;;;;;19.02;82.64;98563.72;6236415;22;20008;-90
2022/08/15 00:49:28;;;;;;;10.68;6.45;;;;;;;18.99;83.48;98570.69;6225884;22;20012;-90
2022/08/15 00:52:07;;;;;;;8.48;6.28;;;;;;;18.93;83.59;98563.88;6217062;23;20024;-90
2022/08/15 00:54:46;;;;;;;8.98;6.40;;;;;;;19.06;84.14;98589.97;6194639;23;20004;-91
2022/08/15 00:57:18;;;;;;;9.00;6.28;;;;;;;19.04;83.84;98581.34;6219941;23;20027;-90
2022/08/15 00:59:46;;;;;;;;;;;;;;;19.05;83.26;98582.13;6194144;23;20004;-90
2022/08/15 01:02:14;;;;;;;9.07;6.55;;;;;;;18.90;83.38;98570.00;6247165;23;20317;-90
2022/08/15 01:04:40;;;;;;;8.98;6.40;;;;;;;18.89;84.23;98576.59;6219387;23;20000;-90
2022/08/15 01:07:07;;;;;;;10.98;6.88;;;;;;;18.95;83.36;98581.47;6195518;23;20000;-91
2022/08/15 01:09:33;;;;;;;9.20;6.72;;;;;;;18.98;83.67;98588.97;6220281;23;19996;-90
2022/08/15 01:12:10;;;;;;;8.35;6.45;;;;;;;18.97;83.93;98592.84;6219619;23;20059;-90
2022/08/15 01:14:37;;;;;;;8.75;6.40;;;;;;;18.91;84.07;98568.88;6247361;23;20003;-90
2022/08/15 01:17:05;;;;;;;8.95;6.13;;;;;;;18.85;83.36;98560.13;6195203;23;20000;-90
2022/08/15 01:19:57;;;;;;;8.93;6.53;;;;;;;18.97;82.88;98584.66;6170264;23;20007;-90
2022/08/15 01:22:38;;;;;;;;;;;;;;;18.96;83.31;98582.25;6163973;23;20044;-90
2022/08/15 01:25:13;;;;;;;7.22;6.10;;;;;;;18.86;83.90;98558.19;6158013;23;20341;-90
2022/08/15 01:27:44;;;;;;;9.07;6.50;;;;;;;18.97;83.48;98581.13;6160152;23;20084;-90
2022/08/15 01:30:15;;;;;;;7.90;6.17;;;;;;;18.96;83.03;98588.50;6135490;23;20012;-90
2022/08/15 01:32:42;;;;;;;8.87;6.73;;;;;;;18.88;83.46;98577.72;6158653;23;20067;-91
2022/08/15 01:35:10;;;;;;;8.35;6.45;;;;;;;18.87;83.67;98574.22;6159478;23;20056;-90
2022/08/15 01:37:38;;;;;;;12.18;6.68;;;;;;;18.95;83.91;98583.41;6157806;23;20001;-90
2022/08/15 01:40:13;;;;;;;9.15;6.88;;;;;;;18.97;84.19;98587.38;6132077;23;20001;-90
2022/08/15 01:42:41;;;;;;;8.68;6.35;;;;;;;18.94;84.13;98576.34;6159956;23;20016;-90
2022/08/15 01:45:26;;;;;;;8.73;6.53;;;;;;;18.98;82.80;98577.25;6110295;23;20001;-90
2022/08/15 01:48:03;;;;;;;8.80;6.50;;;;;;;19.06;82.87;98589.19;6117817;23;20009;-91
2022/08/15 01:50:51;;;;;;;9.32;6.53;;;;;;;19.06;82.32;98589.97;6161059;23;20036;-91
2022/08/15 01:53:36;;;;;;;7.90;5.93;;;;;;;19.00;82.73;98596.03;6217375;22;19995;-91
2022/08/15 01:56:08;;;;;;;9.77;6.18;;;;;;;18.88;82.93;98573.06;6276291;22;20003;-90
2022/08/15 01:58:39;;;;;;;8.75;6.30;;;;;;;18.84;83.31;98565.91;6225867;22;20000;-90
2022/08/15 02:01:08;;;;;;;12.02;6.22;;;;;;;18.85;83.01;98578.44;6200153;22;20010;-91
2022/08/15 02:03:33;;;;;;;7.35;5.65;;;;;;;18.99;82.85;98584.31;6224871;22;20003;-91
2022/08/15 02:06:04;;;;;;;8.93;6.90;;;;;;;18.89;83.12;98576.59;6224940;22;20003;-91
2022/08/15 02:08:29;;;;;;;8.65;6.55;;;;;;;18.86;82.79;98569.88;6200532;22;20061;-91
2022/08/15 02:10:55;;;;;;;11.05;7.32;;;;;;;18.84;82.94;98566.69;6199461;22;20004;-90
2022/08/15 02:13:20;;;;;;;7.80;6.53;;;;;;;18.90;82.96;98581.69;6199337;22;19995;-91
2022/08/15 02:15:47;;;;;;;8.93;6.68;;;;;;;18.84;82.49;98574.09;6199711;22;19999;-90
2022/08/15 02:18:13;;;;;;;8.43;6.60;;;;;;;18.91;83.74;98583.31;6199638;22;20037;-91
2022/08/15 02:20:39;;;;;;;9.07;6.45;;;;;;;18.82;83.70;98568.97;6224226;22;20015;-90
2022/08/15 02:23:05;;;;;;;8.10;6.28;;;;;;;18.91;82.63;98571.59;6224694;22;20004;-90
2022/08/15 02:25:31;;;;;;;8.27;6.22;;;;;;;18.95;83.30;98572.50;6250099;22;20003;-91
2022/08/15 02:27:57;;;;;;;8.10;6.22;;;;;;;18.98;83.39;98585.44;6249048;22;20004;-90
2022/08/15 02:30:27;;;;;;;7.70;6.40;;;;;;;18.88;83.26;98581.25;6224418;22;19999;-90
2022/08/15 02:32:54;;;;;;;9.38;6.50;;;;;;;18.92;83.38;98582.16;6274817;22;20000;-90
2022/08/15 02:35:20;;;;;;;8.13;6.30;;;;;;;18.89;83.55;98590.25;6224088;22;20031;-90
2022/08/15 02:37:49;;;;;;;9.80;6.55;;;;;;;18.94;83.50;98581.81;6224872;22;19996;-90
2022/08/15 02:40:15;;;;;;;9.60;6.65;;;;;;;19.02;83.06;98594.53;6200332;22;20095;-90
2022/08/15 02:42:44;;;;;;;7.90;6.45;;;;;;;18.97;83.35;98592.06;6199219;22;19999;-90
2022/08/15 02:45:10;;;;;;;13.65;6.82;;;;;;;19.00;82.95;98596.03;6223583;22;20014;-90
2022/08/15 02:47:37;;;;;;;8.85;6.50;;;;;;;18.91;83.30;98596.16;6200871;22;20000;-90
2022/08/15 02:50:06;;;;;;;11.02;6.80;;;;;;;18.89;83.62;98590.25;6199956;22;20344;-91
2022/08/15 02:52:33;;;;;;;9.00;6.57;;;;;;;18.93;83.48;98607.50;6224990;22;20004;-90
2022/08/15 02:54:59;;;;;;;8.45;6.63;;;;;;;18.94;83.40;98609.88;6224321;22;20456;-90
2022/08/15 02:57:25;;;;;;;9.23;6.78;;;;;;;18.91;83.54;98607.84;6199876;22;19999;-90
2022/08/15 02:59:50;;;;;;;7.72;5.97;;;;;;;18.97;83.26;98614.66;6199602;22;20006;-90
2022/08/15 03:02:16;;;;;;;7.28;5.97;;;;;;;18.97;82.81;98608.41;6199080;22;20018;-90
2022/08/15 03:04:46;;;;;;;8.32;6.15;;;;;;;18.94;82.79;98615.34;6199302;22;20008;-90
2022/08/15 03:07:11;;;;;;;7.45;5.95;;;;;;;19.06;82.85;98622.72;6250501;22;20027;-91
2022/08/15 03:09:39;;;;;;;8.25;6.22;;;;;;;18.98;82.41;98613.50;6223983;22;19984;-90
2022/08/15 03:12:04;;;;;;;7.72;6.15;;;;;;;18.88;82.92;98605.00;6200140;22;19996;-90
2022/08/15 03:14:30;;;;;;;7.80;6.20;;;;;;;19.06;82.28;98627.38;6198442;22;20000;-90
2022/08/15 03:16:59;;;;;;;9.52;6.78;;;;;;;19.04;82.10;98618.75;6223937;22;20006;-92
2022/08/15 03:19:27;;;;;;;10.10;6.30;;;;;;;19.01;81.73;98608.50;6199972;22;20345;-91
2022/08/15 03:21:53;;;;;;;7.60;5.75;;;;;;;19.13;81.78;98624.88;6249251;22;20520;-91
2022/08/15 03:24:22;;;;;;;11.10;6.57;;;;;;;18.94;81.89;98606.38;6198898;22;20011;-90
2022/08/15 03:26:48;;;;;;;8.25;6.38;;;;;;;18.98;81.93;98608.06;6224757;22;20042;-91
2022/08/15 03:29:16;;;;;;;7.80;6.03;;;;;;;18.96;81.18;98610.34;6223122;22;20003;-91
2022/08/15 03:31:43;;;;;;;6.97;6.05;;;;;;;19.09;81.55;98616.59;6223644;22;20430;-91
2022/08/15 03:34:12;;;;;;;8.85;5.82;;;;;;;19.00;81.38;98610.44;6275638;22;20003;-90
2022/08/15 03:36:40;;;;;;;7.38;5.90;;;;;;;19.04;81.17;98599.66;6225537;22;20191;-91
2022/08/15 03:39:06;;;;;;;7.82;6.22;;;;;;;19.13;81.04;98617.50;6199531;22;20453;-91
2022/08/15 03:41:32;;;;;;;8.23;6.10;;;;;;;19.09;80.44;98613.03;6249434;22;19999;-93
2022/08/15 03:43:58;;;;;;;7.30;5.53;;;;;;;19.04;80.87;98611.34;6224041;22;19995;-91
2022/08/15 03:46:24;;;;;;;9.50;6.22;;;;;;;19.08;81.44;98603.28;6225062;22;20033;-90
2022/08/15 03:48:51;;;;;;;9.43;6.40;;;;;;;19.05;82.62;98603.97;6251502;22;20038;-90
2022/08/15 03:51:20;;;;;;;7.82;6.40;;;;;;;18.99;83.29;98611.59;6201256;22;20012;-91
2022/08/15 03:53:51;;;;;;;9.32;6.82;;;;;;;18.97;83.08;98611.16;6203118;22;19999;-91
2022/08/15 03:56:21;;;;;;;9.23;6.05;;;;;;;18.89;83.33;98601.16;6227060;22;20000;-91
2022/08/15 03:58:47;;;;;;;12.60;6.40;;;;;;;18.94;83.62;98595.44;6215079;22;20061;-91
2022/08/15 04:01:17;;;;;;;8.98;6.68;;;;;;;19.00;83.18;98594.09;6201303;22;20324;-92
2022/08/15 04:03:43;;;;;;;11.70;6.82;;;;;;;19.00;83.41;98593.28;6226536;22;20358;-91
2022/08/15 04:06:11;;;;;;;9.10;6.50;;;;;;;19.05;82.99;98593.03;6200326;22;19996;-91
2022/08/15 04:08:39;;;;;;;13.65;6.90;;;;;;;19.22;82.22;98611.91;6251490;22;20008;-91
2022/08/15 04:11:38;;;;;;;10.45;6.80;;;;;;;19.34;82.23;98611.06;6202600;22;20086;-91
2022/08/15 04:14:07;;;;;;;8.50;6.28;;;;;;;19.28;81.61;98585.97;6226458;22;20065;-91
2022/08/15 04:16:33;;;;;;;10.18;6.07;;;;;;;19.49;80.17;98612.28;6250084;22;20067;-89
2022/08/15 04:18:59;;;;;;;13.35;6.90;;;;;;;19.42;80.59;98587.50;6226388;22;20418;-90
2022/08/15 04:21:24;;;;;;;11.30;7.47;;;;;;;19.41;80.52;98594.13;6227069;22;20003;-91
2022/08/15 04:23:50;;;;;;;7.78;5.55;;;;;;;19.47;79.63;98587.25;6200368;22;20049;-91
2022/08/15 04:26:16;;;;;;;9.73;6.35;;;;;;;19.51;80.16;98612.75;6201915;22;19999;-91
2022/08/15 04:28:44;;;;;;;9.05;6.35;;;;;;;19.38;79.95;98585.47;6201422;22;20086;-91
2022/08/15 04:31:21;;;;;;;9.13;6.85;;;;;;;19.33;80.29;98595.84;6202654;22;20453;-91
2022/08/15 04:33:48;;;;;;;11.30;6.90;;;;;;;19.24;80.78;98595.19;6254049;22;20004;-93
2022/08/15 04:36:15;;;;;;;13.07;6.15;;;;;;;19.05;81.70;98571.22;6201716;22;20004;-94
2022/08/15 04:38:42;;;;;;;11.77;6.45;;;;;;;19.13;81.51;98592.13;6202418;22;20004;-91
2022/08/15 04:41:12;;;;;;;8.73;6.18;;;;;;;19.13;82.41;98603.03;6201721;22;20342;-94
2022/08/15 04:43:40;;;;;;;10.38;6.50;;;;;;;18.94;82.90;98582.59;6251798;22;20003;-95
2022/08/15 04:46:06;;;;;;;13.52;6.80;;;;;;;19.09;83.04;98610.31;6200815;22;20007;-92
2022/08/15 04:48:32;;;;;;;7.75;6.00;;;;;;;19.05;82.61;98607.50;6251566;22;20011;-93
2022/08/15 04:50:59;;;;;;;10.52;5.88;;;;;;;18.95;83.09;98597.06;6225006;22;20015;-95
2022/08/15 04:53:33;;;;;;;8.63;6.00;;;;;;;18.95;82.45;98586.94;6231075;22;19991;-96
2022/08/15 04:56:07;;;;;;;8.63;6.85;;;;;;;19.08;82.37;98601.34;6236847;22;20053;-96
2022/08/15 04:58:50;;;;;;;9.45;6.45;;;;;;;19.13;81.90;98600.31;6169373;23;20001;-96
2022/08/15 05:01:15;;;;;;;10.07;6.85;;;;;;;19.33;80.98;98604.03;6112636;23;20012;-95
2022/08/15 05:03:41;;;;;;;9.35;6.63;;;;;;;19.14;81.73;98596.44;6111731;23;20080;-95
2022/08/15 05:06:08;;;;;;;14.90;7.22;;;;;;;19.30;81.18;98619.16;6112140;23;20016;-94
2022/08/15 05:08:36;;;;;;;9.75;6.38;;;;;;;19.34;80.34;98617.34;6137983;23;20024;-94
2022/08/15 05:11:08;;;;;;;9.68;6.70;;;;;;;19.33;82.18;98623.91;6140627;23;20053;-93
2022/08/15 05:13:37;;;;;;;11.80;7.18;;;;;;;19.29;82.46;98625.75;6142721;23;20005;-95
2022/08/15 05:16:07;;;;;;;12.60;6.90;;;;;;;19.45;82.29;98639.47;6193110;23;20001;-96
2022/08/15 05:18:38;;;;;;;11.60;7.32;;;;;;;19.21;82.30;98607.56;6140491;23;20001;-94
2022/08/15 05:21:06;;;;;;;13.68;7.05;;;;;;;19.42;81.99;98623.78;6138861;23;20083;-92
2022/08/15 05:23:33;;;;;;;17.13;10.18;;;;;;;19.56;81.57;98632.38;6135531;23;20088;-92
2022/08/15 05:25:59;;;;;;;8.57;5.88;;;;;;;19.75;80.08;98620.06;6110379;23;20005;-93
2022/08/15 05:28:28;;;;;;;8.10;6.47;;;;;;;19.77;80.04;98620.50;6134034;23;20039;-92
2022/08/15 05:30:54;;;;;;;12.10;6.68;;;;;;;19.86;79.44;98618.44;6221672;22;20004;-93
2022/08/15 05:33:26;;;;;;;12.65;8.45;;;;;;;19.93;76.92;98612.34;6201852;22;19999;-96
2022/08/15 05:35:58;;;;;;;;;;;;;;;20.26;76.85;98644.84;6282339;22;19999;-90
2022/08/15 05:38:28;;;;;;;6.70;5.25;;;;;;;20.24;76.79;98630.75;6250035;22;19903;-93
2022/08/15 05:40:53;;;;;;;13.73;7.20;;;;;;;20.65;76.41;98644.28;6225226;22;20146;-94
2022/08/15 05:43:39;;;;;;;12.02;6.13;;;;;;;20.86;73.79;98646.75;6277830;22;20027;-93
2022/08/15 05:46:14;;;;;;;10.52;6.32;;;;;;;20.97;73.66;98645.03;6229789;22;20003;-94
2022/08/15 05:48:42;;;;;;;18.10;12.77;;;;;;;21.02;73.35;98633.81;6261502;22;20011;-96
2022/08/15 05:51:15;;;;;;;9.40;6.80;;;;;;;21.06;73.75;98644.84;6233973;22;20020;-95
2022/08/15 05:53:57;;;;;;;8.60;5.38;;;;;;;21.18;73.07;98631.06;6252620;22;20090;-96
2022/08/15 05:56:35;;;;;;;8.63;6.05;;;;;;;21.19;72.78;98641.66;6254261;22;20354;-91
2022/08/15 05:59:07;;;;;;;6.10;5.25;;;;;;;21.24;73.55;98628.84;6279270;22;20083;-94
2022/08/15 06:01:34;;;;;;;7.00;5.28;;;;;;;21.54;70.22;98638.13;6227818;22;20059;-93
2022/08/15 06:04:07;;;;;;;8.35;6.18;;;;;;;21.46;70.20;98621.88;6202966;22;20031;-94
2022/08/15 06:06:33;;;;;;;9.30;6.88;;;;;;;21.40;71.54;98624.88;6255740;22;20034;-93
2022/08/15 06:09:23;;;;;;;9.35;6.50;;;;;;;21.52;71.29;98615.78;6263669;22;20477;-95
2022/08/15 06:11:53;;;;;;;11.77;5.95;;;;;;;21.61;70.56;98621.03;6210391;22;20087;-96
2022/08/15 06:14:48;;;;;;;7.20;5.18;;;;;;;21.80;69.73;98618.28;6259842;22;19995;-95
2022/08/15 06:17:18;;;;;;;6.40;5.20;;;;;;;21.85;70.51;98630.91;6257587;22;20010;-94
2022/08/15 06:19:47;;;;;;;10.13;5.38;;;;;;;21.69;69.20;98614.53;6236143;22;20354;-94
2022/08/15 06:22:41;;;;;;;14.52;6.45;;;;;;;22.06;68.48;98633.28;6255639;22;20010;-95
2022/08/15 06:25:19;;;;;;;12.10;5.90;;;;;;;21.77;68.98;98623.72;6256855;22;20061;-95
2022/08/15 06:27:58;;;;;;;10.23;5.57;;;;;;;21.96;67.42;98611.94;6250663;22;20006;-89
2022/08/15 06:30:40;;;;;;;7.93;6.38;;;;;;;22.14;67.12;98623.19;6249769;22;20319;-90
2022/08/15 06:33:36;;;;;;;6.95;5.43;;;;;;;22.25;66.73;98637.94;6202204;22;20006;-91
2022/08/15 06:43:02;;;;;;;9.02;5.68;;;;;;;22.25;66.03;98617.97;6142257;23;20105;-96
2022/08/15 06:45:33;;;;;;;12.20;8.88;;;;;;;22.34;67.30;98622.03;6077195;23;20005;-96
2022/08/15 06:48:06;;;;;;;8.95;6.10;;;;;;;22.17;66.75;98601.34;6201750;22;20017;-95
2022/08/15 06:50:39;;;;;;;5.50;4.60;;;;;;;22.14;66.67;98623.19;6228137;23;20024;-96
2022/08/15 06:53:10;;;;;;;5.95;4.40;;;;;;;22.14;62.75;98613.06;6233967;23;20063;-91
2022/08/15 06:56:07;;;;;;;5.97;4.70;;;;;;;22.34;61.47;98632.22;6197552;23;19996;-96
2022/08/15 06:59:04;;;;;;;6.15;4.50;;;;;;;22.58;61.69;98639.28;6220357;23;20000;-94
2022/08/15 07:01:39;;;;;;;8.05;5.97;;;;;;;22.67;63.64;98631.59;6200458;23;20087;-96
2022/08/15 07:04:20;;;;;;;9.43;6.05;;;;;;;22.54;64.67;98622.78;6235298;23;20007;-95
2022/08/15 07:06:55;;;;;;;11.20;7.18;;;;;;;22.77;64.01;98624.69;6197782;23;19996;-94
2022/08/15 07:09:55;;;;;;;7.47;4.93;;;;;;;23.16;61.25;98641.78;6199063;23;19996;-93
2022/08/15 07:12:36;;;;;;;5.45;4.40;;;;;;;23.32;60.71;98640.81;6196589;23;19996;-94
2022/08/15 07:15:43;;;;;;;8.23;5.93;;;;;;;23.62;60.23;98648.28;6201906;23;20007;-96
2022/08/15 07:18:19;;;;;;;8.20;6.03;;;;;;;23.64;59.38;98630.25;6073087;23;20013;-93
2022/08/15 07:20:45;;;;;;;8.98;7.40;;;;;;;23.69;59.12;98646.38;6026380;23;20002;-91
2022/08/15 07:23:20;;;;;;;10.57;7.57;;;;;;;23.50;60.51;98628.09;6169283;23;20091;-94
2022/08/15 07:25:47;;;;;;;6.00;4.10;;;;;;;23.69;58.44;98627.16;6172927;23;20011;-92
2022/08/15 07:28:18;;;;;;;7.25;4.82;;;;;;;23.88;58.98;98633.69;6223842;23;20000;-95
2022/08/15 07:30:52;;;;;;;9.20;7.75;;;;;;;23.93;58.49;98642.38;6203943;23;20074;-94
2022/08/15 07:34:10;;;;;;;5.85;4.65;;;;;;;23.97;58.50;98618.47;6225680;23;20104;-94
2022/08/15 07:37:29;;;;;;;9.77;8.05;;;;;;;24.15;59.08;98643.41;6227971;23;20448;-96
2022/08/15 07:40:04;;;;;;;7.15;4.35;;;;;;;24.18;55.26;98626.16;6234442;23;20149;-94
2022/08/15 07:42:30;;;;;;;5.57;4.22;;;;;;;23.99;56.13;98624.38;6198362;23;20008;-94
2022/08/15 07:44:58;;;;;;;7.50;4.68;;;;;;;24.07;56.34;98640.94;6198311;23;20000;-96
2022/08/15 07:47:29;;;;;;;8.73;5.20;;;;;;;24.23;56.94;98649.78;6174648;22;20072;-95
2022/08/15 07:50:22;;;;;;;6.88;4.38;;;;;;;23.96;57.91;98647.13;6205189;23;19999;-96
2022/08/15 07:52:55;;;;;;;7.25;5.72;;;;;;;23.80;57.46;98641.84;6259930;22;20008;-96
2022/08/15 07:55:24;;;;;;;7.97;4.40;;;;;;;23.91;57.47;98630.97;6227652;22;20075;-94
2022/08/15 07:58:01;;;;;;;7.78;4.75;;;;;;;24.25;56.44;98652.16;6227746;22;20066;-93
2022/08/15 08:00:28;;;;;;;7.63;5.43;;;;;;;24.15;57.69;98648.13;6229713;22;19999;-93
2022/08/15 08:03:27;;;;;;;6.60;4.13;;;;;;;24.25;56.68;98655.69;6203199;22;20003;-94
2022/08/15 08:05:57;;;;;;;9.98;6.20;;;;;;;24.36;57.60;98658.53;6280362;22;20022;-93
2022/08/15 08:08:43;;;;;;;6.57;4.90;;;;;;;24.26;57.60;98635.28;6280989;22;20004;-94
2022/08/15 08:11:37;;;;;;;6.05;4.07;;;;;;;24.10;56.42;98638.25;6201186;22;20008;-91
2022/08/15 08:14:54;;;;;;;4.60;3.75;;;;;;;24.06;55.72;98642.13;6205885;22;20065;-93
2022/08/15 08:17:55;;;;;;;5.15;3.85;;;;;;;24.31;55.89;98651.41;6229923;22;20011;-94
2022/08/15 08:21:21;;;;;;;5.95;4.25;;;;;;;24.51;55.77;98660.31;6261028;22;20003;-93
2022/08/15 08:27:27;;;;;;;5.47;3.63;;;;;;;24.91;52.43;98638.59;6249053;22;20035;-94
2022/08/15 08:30:07;;;;;;;6.28;5.00;;;;;;;24.81;52.80;98640.09;6224350;23;20023;-93
2022/08/15 08:32:38;;;;;;;5.80;4.25;;;;;;;25.11;52.19;98656.44;6174173;23;20091;-95
2022/08/15 08:35:19;;;;;;;5.10;3.77;;;;;;;25.11;51.71;98658.38;6198217;23;20399;-93
2022/08/15 08:37:48;;;;;;;6.97;4.32;;;;;;;25.14;51.67;98641.88;6198449;23;20024;-94
2022/08/15 08:43:38;;;;;;;5.25;3.63;;;;;;;25.47;49.77;98642.88;6250848;23;20058;-94
2022/08/15 08:46:48;;;;;;;5.32;3.90;;;;;;;25.43;50.35;98641.28;6223805;23;20000;-95
2022/08/15 08:49:37;;;;;;;6.28;3.60;;;;;;;25.45;50.26;98636.97;6225211;23;20027;-95
2022/08/15 08:52:10;;;;;;;8.45;5.85;;;;;;;25.52;50.70;98630.69;6201196;23;20067;-95
2022/08/15 08:54:38;;;;;;;6.82;4.00;;;;;;;25.77;49.43;98634.34;6197666;23;20354;-96
2022/08/15 08:57:06;;;;;;;6.63;4.05;;;;;;;25.58;48.68;98627.16;6222680;23;20419;-92
2022/08/15 08:59:51;;;;;;;9.55;3.63;;;;;;;25.72;48.18;98625.66;6175378;23;20090;-94
2022/08/15 09:02:25;;;;;;;6.45;4.07;;;;;;;25.54;49.10;98617.31;6175354;23;20027;-92
2022/08/15 09:04:57;;;;;;;4.38;3.58;;;;;;;25.70;48.11;98622.50;6171880;23;20007;-93
2022/08/15 09:07:24;;;;;;;5.28;3.28;;;;;;;25.53;48.86;98608.25;6197814;23;20004;-90
2022/08/15 09:09:50;;;;;;;5.38;3.55;;;;;;;25.79;48.35;98620.97;6170791;23;20000;-92
2022/08/15 09:15:24;;;;;;;;;;;;;;;25.47;49.72;98625.56;6204225;23;20032;-92
2022/08/15 09:18:05;;;;;;;4.50;3.58;;;;;;;25.01;48.57;98591.84;6194159;23;19908;-92
2022/08/15 09:20:36;;;;;;;6.53;3.80;;;;;;;24.96;50.18;98594.94;6169490;23;20421;-93
2022/08/15 09:23:11;;;;;;;4.78;3.20;;;;;;;25.12;49.97;98615.91;6219864;23;20011;-91
2022/08/15 09:25:41;;;;;;;6.53;3.95;;;;;;;25.36;49.56;98600.72;6169789;23;19996;-91
2022/08/15 09:28:13;;;;;;;8.02;5.00;;;;;;;25.49;49.87;98604.69;6170867;23;20091;-90
2022/08/15 09:30:39;;;;;;;5.28;3.67;;;;;;;25.61;48.78;98589.78;6218731;23;20004;-92
2022/08/15 09:33:16;;;;;;;5.95;4.40;;;;;;;25.76;48.65;98596.13;6169433;23;20075;-93
2022/08/15 09:35:55;;;;;;;5.18;3.67;;;;;;;25.69;47.50;98585.88;6220067;23;20008;-94
2022/08/15 09:38:40;;;;;;;6.13;4.00;;;;;;;26.18;46.95;98592.69;6194797;23;20342;-91
2022/08/15 09:41:37;;;;;;;4.55;3.58;;;;;;;26.24;46.01;98568.25;6248061;23;20000;-95
2022/08/15 09:44:20;;;;;;;5.07;4.00;;;;;;;26.55;47.14;98588.75;6196759;23;20434;-91
2022/08/15 09:47:08;;;;;;;4.13;3.40;;;;;;;26.66;45.52;98583.25;6219180;23;20012;-93
2022/08/15 09:49:59;;;;;;;7.18;3.67;;;;;;;26.80;45.86;98594.28;6218895;23;20007;-92
2022/08/15 09:52:58;;;;;;;6.25;4.00;;;;;;;26.86;44.49;98588.38;6219538;23;20095;-94
2022/08/15 09:55:44;;;;;;;5.28;3.50;;;;;;;26.69;44.35;98578.94;6182851;23;20000;-92
2022/08/15 09:58:22;;;;;;;6.22;3.63;;;;;;;26.75;45.36;98571.78;6171852;23;20147;-91
2022/08/15 10:01:14;;;;;;;4.15;3.08;;;;;;;26.62;45.50;98579.69;6194391;23;20000;-92
2022/08/15 10:03:46;;;;;;;5.78;3.25;;;;;;;26.93;45.42;98600.19;6175668;23;20026;-91
2022/08/15 10:06:25;;;;;;;6.18;3.28;;;;;;;26.70;44.30;98567.47;6222493;23;20035;-91
2022/08/15 10:08:54;;;;;;;3.38;2.58;;;;;;;26.74;44.39;98598.63;6199579;23;20410;-90
2022/08/15 10:11:32;;;;;;;4.20;3.17;;;;;;;26.97;43.64;98597.41;6249361;23;20051;-90
2022/08/15 10:14:14;;;;;;;3.83;2.85;;;;;;;26.85;44.08;98592.31;6248820;23;20000;-90
2022/08/15 10:16:40;;;;;;;4.55;3.33;;;;;;;26.95;44.29;98597.81;6199657;23;20008;-90
2022/08/15 10:19:25;;;;;;;4.00;2.92;;;;;;;26.72;43.96;98567.06;6221333;23;20079;-88
2022/08/15 10:21:51;;;;;;;4.90;3.00;;;;;;;26.83;44.64;98589.16;6224830;23;20502;-88
2022/08/15 10:24:42;;;;;;;4.65;3.15;;;;;;;26.77;43.89;98588.75;6221602;23;20055;-88
2022/08/15 10:27:43;;;;;;;5.88;2.90;;;;;;;26.50;43.75;98574.56;6222192;23;20019;-91
2022/08/15 10:30:11;;;;;;;4.15;2.58;;;;;;;26.84;43.35;98593.50;6134943;23;20164;-91
2022/08/15 10:33:03;;;;;;;4.45;2.97;;;;;;;26.68;43.68;98583.66;6127472;23;20136;-90
2022/08/15 10:35:35;;;;;;;3.80;3.00;;;;;;;27.04;43.27;98600.19;6070753;23;20002;-91
2022/08/15 10:38:02;;;;;;;4.95;2.83;;;;;;;26.88;43.20;98575.72;6093533;23;20501;-91
2022/08/15 10:40:38;;;;;;;5.07;2.50;;;;;;;26.73;43.75;98554.84;6050469;23;20013;-91
2022/08/15 10:43:24;;;;;;;4.75;2.88;;;;;;;27.26;43.19;98584.34;6093786;23;20006;-91
2022/08/15 10:45:59;;;;;;;4.93;3.33;;;;;;;27.20;43.10;98566.56;6069378;23;20069;-91
2022/08/15 10:48:44;;;;;;;4.78;3.60;;;;;;;27.45;42.53;98587.81;6022835;23;20054;-92
2022/08/15 10:51:25;;;;;;;8.15;5.90;;;;;;;27.28;43.03;98581.19;6093720;23;20002;-93
2022/08/15 10:54:02;;;;;;;4.75;3.90;;;;;;;27.45;42.46;98579.53;6070153;23;20077;-91
2022/08/15 10:56:32;;;;;;;4.93;3.58;;;;;;;27.57;41.87;98565.25;6096767;23;20006;-91
2022/08/15 10:59:18;;;;;;;5.25;3.63;;;;;;;27.76;42.09;98563.97;6048949;23;20331;-92
2022/08/15 11:01:44;;;;;;;6.22;3.30;;;;;;;27.74;42.25;98549.75;6107519;23;20005;-93
2022/08/15 11:04:36;;;;;;;5.38;3.80;;;;;;;27.74;43.02;98544.22;6186290;23;20001;-91
2022/08/15 11:07:33;;;;;;;6.55;4.03;;;;;;;28.08;41.74;98563.81;6220676;23;20411;-93
2022/08/15 11:10:00;;;;;;;7.38;4.00;;;;;;;28.19;41.06;98558.97;6223904;23;20004;-93
2022/08/15 11:12:28;;;;;;;5.00;3.53;;;;;;;28.22;40.86;98546.28;6172501;23;19996;-91
2022/08/15 11:14:58;;;;;;;3.70;3.30;;;;;;;28.18;40.59;98559.34;6222297;23;20000;-91
2022/08/15 11:17:38;;;;;;;5.97;4.78;;;;;;;27.98;41.48;98532.22;6187908;22;20039;-95
2022/08/15 11:20:30;;;;;;;7.50;5.00;;;;;;;27.93;41.35;98542.94;6243923;22;20670;-95
2022/08/15 11:23:06;;;;;;;5.55;4.53;;;;;;;28.19;41.07;98549.88;6230638;22;20047;-94
2022/08/15 11:28:41;;;;;;;6.93;2.97;;;;;;;28.12;37.10;98549.91;6292988;22;20027;-95
2022/08/15 11:39:21;;;;;;;5.10;3.55;;;;;;;27.98;39.92;98542.53;6301064;22;20078;-95
2022/08/15 11:42:17;;;;;;;4.38;3.53;;;;;;;28.23;38.56;98561.72;6200002;22;20379;-96
2022/08/15 11:45:11;;;;;;;5.78;4.72;;;;;;;28.17;39.06;98566.88;6193556;22;20031;-96
2022/08/15 11:51:28;;;;;;;5.63;3.83;;;;;;;28.05;39.78;98574.88;6146707;23;20016;-95
2022/08/15 11:56:55;;;;;;;5.32;4.20;;;;;;;27.92;39.74;98567.06;6164270;22;20734;-91
2022/08/15 11:59:40;;;;;;;6.28;4.38;;;;;;;27.65;40.55;98541.13;6219948;22;20054;-96
2022/08/15 12:02:33;;;;;;;5.20;4.63;;;;;;;27.86;39.83;98554.03;6248644;22;20012;-96
2022/08/15 12:05:17;;;;;;;6.00;4.53;;;;;;;27.75;39.66;98543.03;6210983;23;19984;-95
2022/08/15 12:08:03;;;;;;;4.90;4.35;;;;;;;27.85;39.81;98557.97;6212615;23;20032;-96
2022/08/15 12:10:44;;;;;;;5.53;4.45;;;;;;;27.87;39.66;98533.50;6203343;23;20367;-95
2022/08/15 12:13:22;;;;;;;6.47;4.28;;;;;;;28.13;39.66;98538.44;6144339;23;20394;-96
2022/08/15 12:15:52;;;;;;;5.40;4.72;;;;;;;28.27;40.60;98534.78;6173021;23;20542;-95
2022/08/15 12:18:18;;;;;;;7.07;4.50;;;;;;;28.10;40.66;98549.53;6147466;23;20487;-96
2022/08/15 12:21:17;;;;;;;9.27;5.10;;;;;;;28.34;39.31;98509.78;6228538;23;19989;-96
2022/08/15 12:24:05;;;;;;;7.10;4.55;;;;;;;28.74;38.60;98520.50;6186985;23;20004;-95
2022/08/15 12:29:31;;;;;;;5.38;4.18;;;;;;;29.17;37.52;98520.06;6224575;22;20034;-96
2022/08/15 12:32:51;;;;;;;7.38;4.65;;;;;;;29.09;37.89;98516.53;6246136;22;21093;-95
2022/08/15 12:38:20;;;;;;;7.60;4.95;;;;;;;29.63;37.76;98526.97;6289446;22;20023;-96
2022/08/15 12:40:50;;;;;;;5.97;4.88;;;;;;;29.72;37.67;98515.41;6229357;22;20457;-96
2022/08/15 12:43:19;;;;;;;8.20;5.47;;;;;;;30.11;36.96;98522.31;6252826;22;20042;-93
2022/08/15 12:45:45;;;;;;;5.43;4.75;;;;;;;30.18;36.93;98511.88;6209959;22;20022;-96
2022/08/15 12:48:21;;;;;;;7.15;4.60;;;;;;;30.34;36.86;98497.38;6211082;22;20004;-96
2022/08/15 12:50:47;;;;;;;8.60;5.80;;;;;;;30.30;35.71;98499.44;6241937;22;19996;-95